Time;durP1;ratioP1;P1;durP2;ratioP2;P2;SDS_P1;SDS_P2;PMS_P1;PMS_P2;Temp;Humidity;BMP_temperature;BMP_pressure;BME280_temperature;BME280_humidity;BME280_pressure;Samples;Min_cycle;Max_cycle;Signal;HPM_P1;HPM_P2
2022/10/20 00:01:15;;;;;;;17.50;11.80;;;;;;;10.26;100.00;98465.09;5118196;28;20582;-65
2022/10/20 00:03:42;;;;;;;17.10;11.43;;;;;;;10.27;100.00;98466.81;5118077;28;20273;-66
2022/10/20 00:06:11;;;;;;;14.00;10.17;;;;;;;10.22;100.00;98463.63;5118124;28;20302;-67
2022/10/20 00:08:38;;;;;;;15.77;10.73;;;;;;;10.25;100.00;98463.41;5118056;28;20284;-67
2022/10/20 00:11:08;;;;;;;14.10;10.37;;;;;;;10.21;100.00;98465.41;5110950;28;20218;-66
2022/10/20 00:13:35;;;;;;;14.37;10.53;;;;;;;10.15;100.00;98462.31;5117996;28;20286;-66
2022/10/20 00:16:01;;;;;;;13.83;10.47;;;;;;;10.15;100.00;98462.31;5118125;28;20268;-66
2022/10/20 00:18:28;;;;;;;15.07;9.93;;;;;;;10.12;100.00;98458.06;5117843;28;20300;-66
2022/10/20 00:20:55;;;;;;;14.80;9.73;;;;;;;10.10;100.00;98459.91;5112439;28;20585;-66
2022/10/20 00:23:23;;;;;;;15.40;10.17;;;;;;;10.09;100.00;98457.41;5118296;28;20260;-66
2022/10/20 00:26:00;;;;;;;15.10;10.50;;;;;;;10.09;100.00;98449.47;5117832;28;20228;-66
2022/10/20 00:28:28;;;;;;;17.43;11.50;;;;;;;10.07;100.00;98444.28;5117197;28;20219;-67
2022/10/20 00:30:55;;;;;;;17.57;11.70;;;;;;;10.06;100.00;98458.44;5117887;28;20266;-66
2022/10/20 00:33:22;;;;;;;19.17;12.40;;;;;;;10.09;100.00;98457.41;5106951;28;20272;-66
2022/10/20 00:35:49;;;;;;;16.50;11.07;;;;;;;10.07;100.00;98449.56;5117953;28;20580;-66
2022/10/20 00:38:16;;;;;;;17.20;11.20;;;;;;;10.08;100.00;98447.75;5115866;28;20245;-66
2022/10/20 00:40:42;;;;;;;14.67;10.37;;;;;;;10.07;100.00;98448.69;5117519;28;20265;-67
2022/10/20 00:43:10;;;;;;;15.63;11.43;;;;;;;10.11;100.00;98450.22;5117596;28;20269;-67
2022/10/20 00:45:39;;;;;;;16.83;11.30;;;;;;;10.08;100.00;98458.31;5117343;28;20264;-67
2022/10/20 00:48:12;;;;;;;14.53;10.20;;;;;;;10.05;100.00;98450.59;5117281;28;20585;-66
2022/10/20 00:50:41;;;;;;;13.83;10.00;;;;;;;10.03;100.00;98452.47;5117345;28;20530;-66
2022/10/20 00:53:08;;;;;;;13.67;10.00;;;;;;;10.01;100.00;98449.06;5117315;28;20310;-67
2022/10/20 00:55:42;;;;;;;14.67;10.50;;;;;;;9.96;100.00;98446.69;5117334;28;20256;-66
2022/10/20 00:58:14;;;;;;;15.33;9.30;;;;;;;9.94;100.00;98450.38;5117358;28;20296;-66
2022/10/20 01:00:48;;;;;;;15.77;9.80;;;;;;;9.85;100.00;98433.31;5117439;28;20278;-66
2022/10/20 01:03:25;;;;;;;13.03;9.03;;;;;;;9.82;100.00;98428.22;5116077;28;20271;-65
2022/10/20 01:05:51;;;;;;;16.17;10.17;;;;;;;9.85;100.00;98424.56;5117466;28;20250;-66
2022/10/20 01:08:18;;;;;;;16.37;10.50;;;;;;;9.85;100.00;98414.00;5117828;28;20529;-66
2022/10/20 01:10:57;;;;;;;15.80;10.37;;;;;;;9.86;100.00;98402.50;5117471;28;20226;-66
2022/10/20 01:13:45;;;;;;;17.57;10.90;;;;;;;9.90;100.00;98399.56;5117767;28;20574;-66
2022/10/20 01:16:27;;;;;;;15.03;10.80;;;;;;;9.88;100.00;98400.59;5114115;28;20223;-66
2022/10/20 01:19:02;;;;;;;13.83;10.27;;;;;;;9.82;100.00;98395.69;5117248;28;20322;-66
2022/10/20 01:21:59;;;;;;;12.73;9.87;;;;;;;9.83;100.00;98392.97;5117242;28;20224;-66
2022/10/20 01:24:54;;;;;;;13.63;9.83;;;;;;;9.82;100.00;98393.06;5109110;28;20286;-66
2022/10/20 01:27:46;;;;;;;14.23;10.07;;;;;;;9.80;100.00;98389.66;5117106;28;20636;-66
2022/10/20 01:30:17;;;;;;;15.10;10.57;;;;;;;9.88;100.00;98387.41;5114049;28;20234;-66
2022/10/20 01:33:01;;;;;;;18.40;10.73;;;;;;;9.84;100.00;98384.09;5117146;28;20695;-66
2022/10/20 01:35:38;;;;;;;14.73;10.40;;;;;;;9.88;100.00;98379.47;5117160;28;20631;-66
2022/10/20 01:38:14;;;;;;;15.10;10.70;;;;;;;9.89;100.00;98376.75;5117498;28;20330;-66
2022/10/20 01:40:48;;;;;;;18.83;10.83;;;;;;;9.92;100.00;98381.00;5120195;28;20259;-66
2022/10/20 01:43:36;;;;;;;15.07;10.50;;;;;;;9.90;100.00;98372.31;5119315;28;20231;-66
2022/10/20 01:46:04;;;;;;;17.47;10.87;;;;;;;9.91;100.00;98379.28;5121364;28;20394;-66
2022/10/20 01:48:36;;;;;;;17.67;10.80;;;;;;;9.92;100.00;98370.44;5121481;28;20254;-66
2022/10/20 01:51:09;;;;;;;17.07;10.37;;;;;;;9.94;100.00;98371.16;5121197;28;20222;-66
2022/10/20 01:53:39;;;;;;;17.13;10.53;;;;;;;9.94;100.00;98360.59;5121253;28;20276;-66
2022/10/20 01:56:12;;;;;;;16.43;10.33;;;;;;;9.90;100.00;98367.03;5119458;28;20317;-65
2022/10/20 01:59:06;;;;;;;14.83;10.17;;;;;;;9.87;100.00;98356.66;5120979;28;20241;-66
2022/10/20 02:01:54;;;;;;;14.50;9.83;;;;;;;9.83;100.00;98353.38;5118269;28;20288;-66
2022/10/20 02:04:34;;;;;;;16.27;10.67;;;;;;;9.82;100.00;98353.47;5121150;28;20229;-66
2022/10/20 02:07:10;;;;;;;15.30;10.30;;;;;;;9.75;100.00;98350.38;5120963;28;20352;-66
2022/10/20 02:09:46;;;;;;;18.87;11.03;;;;;;;9.76;100.00;98349.44;5120811;28;20224;-66
2022/10/20 02:12:23;;;;;;;16.47;11.40;;;;;;;9.70;100.00;98351.59;5120956;28;20261;-67
2022/10/20 02:14:55;;;;;;;16.30;10.30;;;;;;;9.68;100.00;98353.47;5120811;28;20242;-66
2022/10/20 02:17:22;;;;;;;17.23;10.73;;;;;;;9.71;100.00;98354.13;5120702;28;20632;-66
2022/10/20 02:19:55;;;;;;;14.30;9.93;;;;;;;9.65;100.00;98345.72;5120968;28;20245;-66
2022/10/20 02:22:35;;;;;;;14.93;10.27;;;;;;;9.69;100.00;98342.84;5119041;28;20226;-66
2022/10/20 02:25:11;;;;;;;16.20;10.97;;;;;;;9.68;100.00;98345.56;5117212;28;20233;-66
2022/10/20 02:27:41;;;;;;;17.93;10.90;;;;;;;9.69;100.00;98355.16;5120473;28;20272;-66
2022/10/20 02:30:19;;;;;;;16.07;11.17;;;;;;;9.64;100.00;98342.28;5120408;28;20227;-66
2022/10/20 02:32:51;;;;;;;15.63;10.03;;;;;;;9.62;100.00;98335.38;5115674;28;20706;-66
2022/10/20 02:35:23;;;;;;;16.40;10.77;;;;;;;9.65;100.00;98329.91;5109408;28;20273;-66
2022/10/20 02:37:54;;;;;;;15.87;10.90;;;;;;;9.65;100.00;98324.63;5120403;28;20234;-66
2022/10/20 02:40:24;;;;;;;15.83;10.53;;;;;;;9.66;100.00;98321.91;5120859;28;20328;-66
2022/10/20 02:42:55;;;;;;;15.60;10.83;;;;;;;9.64;100.00;98328.22;5120402;28;20275;-66
2022/10/20 02:45:23;;;;;;;16.60;10.10;;;;;;;9.55;100.00;98324.34;5120283;28;20280;-66
2022/10/20 02:47:53;;;;;;;15.20;11.03;;;;;;;9.56;100.00;98327.84;5118326;28;20244;-66
2022/10/20 02:50:19;;;;;;;17.47;11.37;;;;;;;9.57;100.00;98316.34;5120179;28;20225;-66
2022/10/20 02:52:46;;;;;;;17.63;10.77;;;;;;;9.67;100.00;98314.84;5119130;28;20250;-66
2022/10/20 02:55:16;;;;;;;17.73;11.50;;;;;;;9.75;100.00;98317.84;5120019;28;20276;-66
2022/10/20 02:57:45;;;;;;;15.77;10.70;;;;;;;9.78;100.00;98322.94;5119998;28;20222;-66
2022/10/20 03:00:21;;;;;;;16.50;10.80;;;;;;;9.79;100.00;98319.34;5119634;28;20249;-66
2022/10/20 03:02:56;;;;;;;19.03;11.93;;;;;;;9.80;100.00;98319.22;5119873;28;20226;-66
2022/10/20 03:05:23;;;;;;;17.10;10.73;;;;;;;9.81;100.00;98320.09;5119605;28;20277;-66
2022/10/20 03:07:49;;;;;;;17.60;11.50;;;;;;;9.85;100.00;98326.88;5119642;28;20288;-67
2022/10/20 03:10:19;;;;;;;17.03;10.93;;;;;;;9.88;100.00;98326.69;5119558;28;20258;-67
2022/10/20 03:12:45;;;;;;;19.10;10.53;;;;;;;9.89;100.00;98323.94;5119573;28;20233;-66
2022/10/20 03:15:12;;;;;;;17.17;11.70;;;;;;;9.91;100.00;98322.03;5117927;28;20261;-66
2022/10/20 03:17:48;;;;;;;14.93;10.37;;;;;;;9.89;100.00;98318.66;5119612;28;20287;-66
2022/10/20 03:20:18;;;;;;;15.70;10.97;;;;;;;9.86;100.00;98318.00;5119317;28;20683;-66
2022/10/20 03:22:49;;;;;;;17.17;10.63;;;;;;;9.82;100.00;98316.50;5119449;28;20230;-65
2022/10/20 03:25:19;;;;;;;16.27;10.10;;;;;;;9.83;100.00;98319.06;5119384;27;20319;-66
2022/10/20 03:27:46;;;;;;;15.10;10.67;;;;;;;9.83;100.00;98323.47;5113934;28;20528;-66
2022/10/20 03:30:16;;;;;;;16.47;11.00;;;;;;;9.81;100.00;98323.59;5119262;28;20258;-66
2022/10/20 03:32:45;;;;;;;16.13;10.17;;;;;;;9.82;100.00;98316.50;5119206;28;20227;-66
2022/10/20 03:35:11;;;;;;;16.30;11.33;;;;;;;9.80;100.00;98321.88;5119152;28;20230;-65
2022/10/20 03:37:42;;;;;;;17.17;11.50;;;;;;;9.83;100.00;98318.19;5119369;28;20227;-66
2022/10/20 03:40:14;;;;;;;21.07;11.10;;;;;;;9.82;100.00;98316.50;5117223;28;20589;-65
2022/10/20 03:42:41;;;;;;;16.03;10.53;;;;;;;9.81;100.00;98323.59;5119366;28;20223;-65
2022/10/20 03:45:10;;;;;;;17.23;10.73;;;;;;;9.80;100.00;98324.50;5119094;28;20263;-66
2022/10/20 03:47:40;;;;;;;17.40;11.43;;;;;;;9.84;100.00;98323.38;5119156;28;20230;-65
2022/10/20 03:50:10;;;;;;;17.13;11.60;;;;;;;9.85;100.00;98308.41;5108535;28;20276;-66
2022/10/20 03:52:36;;;;;;;18.63;11.33;;;;;;;9.95;100.00;98304.22;5118787;28;20253;-66
2022/10/20 03:55:08;;;;;;;20.47;13.13;;;;;;;10.03;100.00;98307.22;5118882;28;20277;-66
2022/10/20 03:57:34;;;;;;;19.87;12.20;;;;;;;10.03;100.00;98301.94;5118640;28;20231;-66
2022/10/20 04:00:01;;;;;;;20.13;12.40;;;;;;;10.04;100.00;98288.66;5118597;28;20280;-66
2022/10/20 04:02:44;;;;;;;19.47;11.80;;;;;;;10.03;100.00;98294.03;5118596;28;20227;-66
2022/10/20 04:05:15;;;;;;;18.30;11.87;;;;;;;10.00;100.00;98295.06;5107641;28;20229;-66
2022/10/20 04:07:48;;;;;;;17.23;11.33;;;;;;;9.98;100.00;98289.03;5116884;28;20223;-66
2022/10/20 04:10:25;;;;;;;18.40;11.40;;;;;;;9.99;100.00;98296.03;5118744;28;20258;-66
2022/10/20 04:12:52;;;;;;;22.17;13.50;;;;;;;10.01;100.00;98290.63;5118583;28;20227;-66
2022/10/20 04:15:23;;;;;;;19.93;12.67;;;;;;;10.06;100.00;98285.94;5118402;28;20225;-66
2022/10/20 04:17:52;;;;;;;20.77;13.40;;;;;;;10.11;100.00;98282.06;5118585;28;20231;-68
2022/10/20 04:20:21;;;;;;;23.07;13.10;;;;;;;10.16;100.00;98276.47;5118441;28;20640;-66
2022/10/20 04:22:47;;;;;;;20.83;13.57;;;;;;;10.24;100.00;98279.44;5118433;28;20535;-67
2022/10/20 04:25:20;;;;;;;21.93;13.13;;;;;;;10.33;100.00;98277.06;5118290;28;20271;-66
2022/10/20 04:27:47;;;;;;;19.73;13.00;;;;;;;10.38;100.00;98274.09;5118138;28;20228;-66
2022/10/20 04:30:13;;;;;;;19.90;13.03;;;;;;;10.44;100.00;98273.69;5118339;28;20261;-67
2022/10/20 04:32:42;;;;;;;20.63;13.67;;;;;;;10.44;100.00;98276.34;5116262;28;20224;-66
2022/10/20 04:35:13;;;;;;;23.47;13.83;;;;;;;10.41;100.00;98271.28;5118181;28;20256;-66
2022/10/20 04:37:40;;;;;;;19.23;12.67;;;;;;;10.46;100.00;98285.03;5118282;28;20693;-66
2022/10/20 04:40:09;;;;;;;18.10;12.83;;;;;;;10.44;100.00;98278.97;5118080;28;20248;-67
2022/10/20 04:42:40;;;;;;;21.17;13.47;;;;;;;10.47;100.00;98268.22;5117909;28;20267;-66
2022/10/20 04:45:14;;;;;;;19.13;13.03;;;;;;;10.46;100.00;98272.66;5107147;28;20282;-65
2022/10/20 04:47:43;;;;;;;20.50;13.23;;;;;;;10.45;100.00;98272.78;5117864;28;20221;-66
2022/10/20 04:50:13;;;;;;;20.30;13.00;;;;;;;10.43;100.00;98267.59;5117841;28;20218;-66
2022/10/20 04:52:39;;;;;;;20.83;13.30;;;;;;;10.41;100.00;98261.53;5117823;28;20264;-66
2022/10/20 04:55:09;;;;;;;23.43;12.77;;;;;;;10.44;100.00;98263.97;5117728;28;20334;-66
2022/10/20 04:57:36;;;;;;;21.90;13.00;;;;;;;10.43;100.00;98254.38;5117566;28;20228;-66
2022/10/20 05:00:09;;;;;;;23.17;13.47;;;;;;;10.42;100.00;98254.47;5115813;28;20313;-66
2022/10/20 05:02:38;;;;;;;23.40;13.83;;;;;;;10.42;100.00;98255.31;5117555;28;20232;-65
2022/10/20 05:05:08;;;;;;;23.37;13.70;;;;;;;10.44;100.00;98257.84;5117727;28;20228;-66
2022/10/20 05:07:34;;;;;;;20.73;12.23;;;;;;;10.44;100.00;98252.56;5117351;28;20230;-66
2022/10/20 05:10:01;;;;;;;22.53;14.00;;;;;;;10.44;100.00;98257.84;5117569;28;20218;-66
2022/10/20 05:12:31;;;;;;;24.43;13.37;;;;;;;10.46;100.00;98250.69;5117611;28;20317;-66
2022/10/20 05:15:02;;;;;;;27.57;14.83;;;;;;;10.48;100.00;98257.56;5117054;28;20581;-66
2022/10/20 05:17:30;;;;;;;23.63;14.00;;;;;;;10.50;100.00;98233.66;5117473;28;20237;-66
2022/10/20 05:20:00;;;;;;;27.70;14.37;;;;;;;10.51;100.00;98238.00;5117380;28;20330;-66
2022/10/20 05:22:33;;;;;;;27.30;15.03;;;;;;;10.54;100.00;98233.38;5117273;28;20228;-65
2022/10/20 05:25:02;;;;;;;23.80;14.30;;;;;;;10.56;100.00;98230.59;5115449;28;20272;-67
2022/10/20 05:27:29;;;;;;;27.90;14.37;;;;;;;10.58;100.00;98229.53;5113080;28;20517;-66
2022/10/20 05:29:56;;;;;;;25.77;14.07;;;;;;;10.56;100.00;98215.59;5117220;28;20573;-65
2022/10/20 05:32:22;;;;;;;26.93;14.70;;;;;;;10.56;100.00;98220.03;5117043;28;20284;-66
2022/10/20 05:34:50;;;;;;;22.40;14.10;;;;;;;10.57;100.00;98213.78;5117397;28;20332;-66
2022/10/20 05:37:17;;;;;;;24.17;14.03;;;;;;;10.55;100.00;98213.06;5117271;28;20314;-66
2022/10/20 05:39:47;;;;;;;22.40;13.47;;;;;;;10.54;100.00;98216.66;5117003;28;20661;-67
2022/10/20 05:42:13;;;;;;;22.27;12.87;;;;;;;10.51;100.00;98211.59;5117112;28;20276;-66
2022/10/20 05:44:48;;;;;;;23.40;13.50;;;;;;;10.48;100.00;98211.78;5117278;28;20622;-67
2022/10/20 05:47:20;;;;;;;24.27;12.83;;;;;;;10.43;100.00;98206.81;5117276;28;20232;-66
2022/10/20 05:49:54;;;;;;;20.93;12.57;;;;;;;10.43;100.00;98209.44;5117219;28;20218;-66
2022/10/20 05:52:22;;;;;;;24.03;13.60;;;;;;;10.40;100.00;98216.75;5115658;28;20235;-66
2022/10/20 05:54:51;;;;;;;23.97;13.40;;;;;;;10.44;100.00;98210.28;5117252;28;20227;-67
2022/10/20 05:57:21;;;;;;;22.67;12.90;;;;;;;10.44;100.00;98205.84;5116749;28;20744;-66
2022/10/20 05:59:48;;;;;;;23.67;14.00;;;;;;;10.42;100.00;98202.47;5117110;28;20323;-67
2022/10/20 06:02:21;;;;;;;22.53;12.97;;;;;;;10.43;100.00;98205.94;5117000;28;20312;-66
2022/10/20 06:04:55;;;;;;;21.87;12.43;;;;;;;10.46;100.00;98192.53;5117299;28;20572;-66
2022/10/20 06:07:32;;;;;;;21.40;13.40;;;;;;;10.47;100.00;98194.22;5117419;28;20274;-66
2022/10/20 06:09:59;;;;;;;20.43;12.90;;;;;;;10.51;100.00;98191.28;5117060;28;20301;-66
2022/10/20 06:12:26;;;;;;;25.97;14.47;;;;;;;10.57;100.00;98200.56;5116958;28;20281;-66
2022/10/20 06:14:52;;;;;;;23.77;14.87;;;;;;;10.60;100.00;98205.66;5116946;28;20506;-66
2022/10/20 06:17:24;;;;;;;23.97;13.80;;;;;;;10.64;100.00;98207.16;5115712;28;20643;-66
2022/10/20 06:19:54;;;;;;;20.53;13.27;;;;;;;10.70;100.00;98207.56;5116853;28;20324;-66
2022/10/20 06:22:22;;;;;;;19.47;13.10;;;;;;;10.73;100.00;98206.50;5117093;28;20230;-66
2022/10/20 06:24:53;;;;;;;20.23;12.30;;;;;;;10.79;100.00;98208.72;5117098;28;20578;-67
2022/10/20 06:27:23;;;;;;;20.77;12.70;;;;;;;10.85;100.00;98203.03;5118758;28;20258;-67
2022/10/20 06:29:53;;;;;;;18.87;12.10;;;;;;;10.88;100.00;98211.59;5120495;28;20313;-67
2022/10/20 06:32:25;;;;;;;21.80;13.13;;;;;;;10.90;100.00;98219.41;5120413;28;20262;-67
2022/10/20 06:34:55;;;;;;;23.20;12.63;;;;;;;10.94;100.00;98212.97;5120391;28;20231;-67
2022/10/20 06:37:21;;;;;;;21.50;12.50;;;;;;;11.00;100.00;98217.84;5120557;28;20226;-67
2022/10/20 06:39:48;;;;;;;20.03;12.80;;;;;;;11.02;100.00;98215.94;5120227;28;20248;-66
2022/10/20 06:42:16;;;;;;;22.33;12.07;;;;;;;11.05;100.00;98208.63;5120405;28;20592;-65
2022/10/20 06:44:43;;;;;;;18.87;12.03;;;;;;;11.10;100.00;98208.28;5118618;28;20342;-66
2022/10/20 06:47:09;;;;;;;20.40;12.60;;;;;;;11.16;100.00;98218.44;5120070;28;20259;-66
2022/10/20 06:49:42;;;;;;;17.13;10.87;;;;;;;11.17;100.00;98213.06;5120103;28;20269;-66
2022/10/20 06:52:10;;;;;;;21.33;11.37;;;;;;;11.19;100.00;98227.00;5120243;28;20225;-66
2022/10/20 06:54:36;;;;;;;18.37;12.07;;;;;;;11.20;100.00;98228.69;5120150;28;20227;-66
2022/10/20 06:57:03;;;;;;;19.53;12.37;;;;;;;11.23;100.00;98228.50;5120074;28;20578;-66
2022/10/20 06:59:31;;;;;;;15.60;10.70;;;;;;;11.27;100.00;98229.13;5120101;27;20534;-65
2022/10/20 07:02:01;;;;;;;16.73;11.23;;;;;;;11.29;100.00;98229.84;5119854;28;20268;-66
2022/10/20 07:04:28;;;;;;;16.53;10.40;;;;;;;11.33;100.00;98239.28;5119963;28;20221;-66
2022/10/20 07:07:00;;;;;;;16.90;11.27;;;;;;;11.41;100.00;98236.94;5119669;28;20256;-67
2022/10/20 07:09:27;;;;;;;15.67;10.23;;;;;;;11.49;100.00;98237.25;5120180;28;20493;-66
2022/10/20 07:11:53;;;;;;;17.03;10.73;;;;;;;11.56;100.00;98231.38;5118022;28;20224;-67
2022/10/20 07:14:23;;;;;;;17.50;10.67;;;;;;;11.65;100.00;98229.91;5119762;28;20613;-66
2022/10/20 07:16:51;;;;;;;16.53;10.87;;;;;;;11.74;100.00;98229.28;5117412;28;20338;-65
2022/10/20 07:19:20;;;;;;;14.83;9.63;;;;;;;11.77;100.00;98234.34;5117449;28;20237;-66
2022/10/20 07:21:47;;;;;;;14.80;9.90;;;;;;;11.88;100.00;98226.47;5113987;28;20303;-66
2022/10/20 07:24:17;;;;;;;15.50;10.70;;;;;;;11.95;100.00;98212.66;5119591;28;20227;-66
2022/10/20 07:26:44;;;;;;;17.73;12.20;;;;;;;12.05;100.00;98207.53;5119588;28;20232;-67
2022/10/20 07:29:12;;;;;;;13.03;9.53;;;;;;;12.15;100.00;98213.81;5119520;28;20253;-66
2022/10/20 07:31:47;;;;;;;13.43;10.37;;;;;;;12.22;100.00;98223.88;5114202;28;20260;-68
2022/10/20 07:34:17;;;;;;;14.60;9.97;;;;;;;12.31;100.00;98225.00;5119257;28;20232;-66
2022/10/20 07:36:52;;;;;;;13.80;9.70;;;;;;;12.33;100.00;98225.72;5117479;28;20228;-66
2022/10/20 07:39:19;;;;;;;15.10;10.73;;;;;;;12.39;100.00;98227.91;5119187;28;20271;-67
2022/10/20 07:41:51;;;;;;;13.43;9.80;;;;;;;12.39;100.00;98236.72;5119112;28;20274;-66
2022/10/20 07:44:19;;;;;;;15.53;10.23;;;;;;;12.52;100.00;98223.38;5119168;28;20222;-66
2022/10/20 07:46:46;;;;;;;11.80;9.40;;;;;;;12.58;100.00;98221.09;5119192;28;20225;-65
2022/10/20 07:49:14;;;;;;;12.40;9.03;;;;;;;12.66;100.00;98215.22;5118982;28;20229;-65
2022/10/20 07:51:41;;;;;;;13.33;10.00;;;;;;;12.72;100.00;98220.91;5118849;28;20218;-65
2022/10/20 07:54:11;;;;;;;13.07;9.83;;;;;;;12.80;100.00;98226.47;5119078;28;20221;-66
2022/10/20 07:56:45;;;;;;;12.30;9.27;;;;;;;12.87;100.00;98219.75;5118808;28;20214;-66
2022/10/20 07:59:14;;;;;;;12.00;8.37;;;;;;;12.90;100.00;98230.09;5113841;28;20308;-66
2022/10/20 08:01:43;;;;;;;11.00;8.43;;;;;;;12.96;100.00;98229.66;5118649;28;20519;-67
2022/10/20 08:04:10;;;;;;;12.20;8.67;;;;;;;12.95;100.00;98235.06;5117102;28;20233;-70
2022/10/20 08:06:38;;;;;;;12.60;8.47;;;;;;;12.96;100.00;98223.53;5117128;28;20327;-71
2022/10/20 08:09:05;;;;;;;9.57;7.47;;;;;;;12.99;100.00;98220.63;5116032;28;20545;-71
2022/10/20 08:11:31;;;;;;;10.40;8.00;;;;;;;13.00;100.00;98215.22;5117602;28;20225;-70
2022/10/20 08:13:58;;;;;;;11.53;9.00;;;;;;;13.12;100.00;98218.69;5116297;28;20257;-70
2022/10/20 08:16:24;;;;;;;10.70;8.67;;;;;;;13.12;100.00;98229.31;5117626;28;20225;-71
2022/10/20 08:18:51;;;;;;;10.27;8.50;;;;;;;13.18;100.00;98234.16;5116689;28;20287;-71
2022/10/20 08:21:21;;;;;;;10.67;8.13;;;;;;;13.28;100.00;98219.19;5115889;28;20299;-70
2022/10/20 08:23:50;;;;;;;10.20;8.57;;;;;;;13.45;100.00;98216.06;5117150;28;20443;-70
2022/10/20 08:26:19;;;;;;;9.50;7.40;;;;;;;13.53;100.00;98218.94;5118284;28;20295;-70
2022/10/20 08:28:46;;;;;;;11.10;7.63;;;;;;;13.66;100.00;98209.03;5116574;28;20249;-70
2022/10/20 08:31:12;;;;;;;9.97;7.83;;;;;;;13.69;100.00;98209.63;5118331;28;20349;-69
2022/10/20 08:33:39;;;;;;;7.63;6.80;;;;;;;13.84;100.00;98203.09;5118296;28;20223;-69
2022/10/20 08:36:09;;;;;;;7.70;6.90;;;;;;;13.90;100.00;98199.09;5118130;28;20227;-69
2022/10/20 08:38:36;;;;;;;8.27;7.13;;;;;;;13.96;100.00;98198.59;5118193;28;20532;-70
2022/10/20 08:41:06;;;;;;;9.90;6.93;;;;;;;14.04;100.00;98209.41;5117928;28;20274;-70
2022/10/20 08:43:40;;;;;;;7.47;6.40;;;;;;;14.11;100.00;98200.00;5118011;28;20223;-70
2022/10/20 08:46:07;;;;;;;7.90;6.47;;;;;;;14.19;100.00;98203.72;5117909;28;20259;-69
2022/10/20 08:48:34;;;;;;;7.63;6.50;;;;;;;14.21;100.00;98206.25;5117685;28;20273;-69
2022/10/20 08:51:01;;;;;;;6.70;5.87;;;;;;;14.24;100.00;98219.31;5117494;28;20223;-69
2022/10/20 08:53:35;;;;;;;6.33;5.33;;;;;;;14.28;100.00;98223.38;5117806;28;20284;-69
2022/10/20 08:56:13;;;;;;;6.63;5.83;;;;;;;14.40;100.00;98223.22;5115943;28;20357;-69
2022/10/20 08:58:42;;;;;;;7.57;5.97;;;;;;;14.51;100.00;98220.53;5117698;28;20223;-69
2022/10/20 09:01:19;;;;;;;6.53;5.83;;;;;;;14.61;100.00;98215.28;5117642;28;20242;-69
2022/10/20 09:03:54;;;;;;;6.87;5.57;;;;;;;14.78;100.00;98228.00;5117909;28;20561;-70
2022/10/20 09:06:21;;;;;;;6.00;5.40;;;;;;;14.84;100.00;98223.00;5117697;28;20340;-71
2022/10/20 09:08:51;;;;;;;5.97;5.40;;;;;;;14.91;100.00;98239.31;5117753;28;20270;-69
2022/10/20 09:14:19;;;;;;;6.10;5.03;;;;;;;15.14;100.00;98224.84;5113937;28;20226;-70
2022/10/20 09:16:46;;;;;;;5.80;4.90;;;;;;;15.18;100.00;98223.63;5117500;28;20230;-70
2022/10/20 09:19:17;;;;;;;6.40;4.90;;;;;;;15.28;100.00;98221.88;5117492;28;20300;-70
2022/10/20 09:21:46;;;;;;;6.17;4.80;;;;;;;15.33;100.00;98219.69;5115651;28;20307;-70
2022/10/20 09:24:13;;;;;;;5.53;4.43;;;;;;;15.45;100.00;98223.94;5117532;28;20259;-70
2022/10/20 09:26:44;;;;;;;6.03;4.97;;;;;;;15.55;100.00;98207.00;5117423;28;20223;-70
2022/10/20 09:29:13;;;;;;;5.80;5.17;;;;;;;15.64;100.00;98205.38;5117405;28;20256;-67
2022/10/20 09:31:42;;;;;;;5.60;5.00;;;;;;;15.79;100.00;98217.31;5117361;28;20264;-68
2022/10/20 09:34:25;;;;;;;5.80;4.47;;;;;;;15.88;100.00;98227.19;5117245;28;20228;-68
2022/10/20 09:36:55;;;;;;;4.80;4.30;;;;;;;15.90;100.00;98214.53;5115001;28;20317;-68
2022/10/20 09:39:24;;;;;;;5.30;4.77;;;;;;;15.93;100.00;98208.94;5114502;28;20278;-67
2022/10/20 09:42:02;;;;;;;5.53;5.03;;;;;;;15.88;100.00;98222.66;5116069;28;20277;-67
2022/10/20 09:44:32;;;;;;;5.93;4.80;;;;;;;15.91;100.00;98216.22;5116404;28;20221;-68
2022/10/20 09:47:00;;;;;;;6.17;4.90;;;;;;;15.95;100.00;98205.16;5111942;28;20331;-69
2022/10/20 09:49:30;;;;;;;5.23;4.67;;;;;;;15.96;100.00;98200.66;5115629;28;20229;-68
2022/10/20 09:51:57;;;;;;;5.63;4.50;;;;;;;15.98;100.00;98207.56;5100430;28;20221;-70
2022/10/20 09:54:25;;;;;;;5.27;4.10;;;;;;;16.07;100.00;98217.38;5115599;28;20228;-68
2022/10/20 09:57:03;;;;;;;5.53;4.63;;;;;;;16.16;100.00;98222.72;5115990;28;20259;-69
2022/10/20 09:59:36;;;;;;;4.90;4.27;;;;;;;16.25;100.00;98189.91;5116113;28;20306;-69
2022/10/20 10:02:27;;;;;;;5.37;4.50;;;;;;;16.36;100.00;98195.09;5118904;28;20244;-69
2022/10/20 10:04:54;;;;;;;7.03;4.97;;;;;;;16.61;99.78;98191.91;5120484;28;20272;-68
2022/10/20 10:07:31;;;;;;;7.83;5.43;;;;;;;16.83;97.62;98186.22;5119821;27;20290;-69
2022/10/20 10:10:00;;;;;;;6.63;4.20;;;;;;;17.06;95.57;98190.25;5119478;28;20303;-69
2022/10/20 10:12:30;;;;;;;5.83;3.70;;;;;;;17.27;94.55;98182.91;5120132;28;20314;-71
2022/10/20 10:14:59;;;;;;;4.30;3.90;;;;;;;17.46;92.76;98179.31;5115571;28;20305;-71
2022/10/20 10:17:29;;;;;;;4.77;4.10;;;;;;;17.56;89.63;98159.56;5118298;28;20228;-70
2022/10/20 10:19:57;;;;;;;5.00;4.20;;;;;;;17.65;89.47;98173.88;5119519;28;20229;-71
2022/10/20 10:22:24;;;;;;;6.27;3.73;;;;;;;17.76;89.86;98169.19;5118997;28;20277;-74
2022/10/20 10:24:54;;;;;;;4.33;3.93;;;;;;;17.85;89.33;98162.94;5120815;28;20267;-73
2022/10/20 10:27:24;;;;;;;4.37;3.70;;;;;;;17.84;88.13;98147.03;5104382;28;20254;-72
2022/10/20 10:29:53;;;;;;;4.60;4.10;;;;;;;17.83;90.25;98180.13;5120598;28;20222;-73
2022/10/20 10:32:25;;;;;;;4.27;3.80;;;;;;;17.75;90.77;98175.50;5119040;28;20218;-74
2022/10/20 10:35:11;;;;;;;5.83;4.50;;;;;;;17.65;89.76;98174.75;5118085;28;20304;-74
2022/10/20 10:37:40;;;;;;;5.50;4.03;;;;;;;17.56;90.36;98180.94;5119369;28;20568;-73
2022/10/20 10:40:15;;;;;;;5.00;4.07;;;;;;;17.51;91.23;98188.59;5118652;28;20280;-74
2022/10/20 10:43:06;;;;;;;3.90;3.33;;;;;;;17.56;91.25;98191.66;5120325;28;20268;-74
2022/10/20 10:45:51;;;;;;;6.53;4.57;;;;;;;17.67;89.94;98183.44;5120695;28;20228;-75
2022/10/20 10:48:48;;;;;;;4.37;3.97;;;;;;;17.74;89.00;98167.66;5120338;28;20264;-73
2022/10/20 10:51:22;;;;;;;5.53;4.17;;;;;;;17.90;88.55;98179.38;5106446;28;20218;-74
2022/10/20 10:54:05;;;;;;;4.57;3.83;;;;;;;18.07;88.22;98175.88;5120249;28;20328;-73
2022/10/20 10:56:43;;;;;;;4.30;3.90;;;;;;;18.18;87.27;98169.47;5120074;28;20258;-74
2022/10/20 10:59:12;;;;;;;8.50;5.03;;;;;;;18.29;87.62;98156.69;5120193;28;20226;-73
2022/10/20 11:02:17;;;;;;;7.20;4.80;;;;;;;18.27;87.19;98158.69;5120025;28;20281;-74
2022/10/20 11:05:11;;;;;;;7.00;4.73;;;;;;;18.23;87.69;98143.94;5118464;28;20225;-74
2022/10/20 11:07:45;;;;;;;4.83;4.17;;;;;;;18.19;88.12;98137.22;5119627;28;20618;-73
2022/10/20 11:10:23;;;;;;;4.37;3.97;;;;;;;18.15;88.69;98149.22;5119756;28;20229;-74
2022/10/20 11:13:01;;;;;;;5.87;4.27;;;;;;;18.10;87.80;98135.44;5119230;28;20435;-73
2022/10/20 11:15:41;;;;;;;4.87;4.23;;;;;;;18.07;89.01;98127.75;5119755;28;20279;-73
2022/10/20 11:18:18;;;;;;;5.63;4.27;;;;;;;18.02;89.49;98145.22;5119569;28;20313;-73
2022/10/20 11:20:54;;;;;;;5.03;4.07;;;;;;;18.00;89.73;98148.06;5119606;28;20261;-73
2022/10/20 11:24:12;;;;;;;4.57;3.80;;;;;;;18.03;89.21;98142.41;5119529;28;20261;-73
2022/10/20 11:26:42;;;;;;;5.33;4.30;;;;;;;18.13;87.77;98137.84;5097153;28;20543;-73
2022/10/20 11:29:14;;;;;;;5.30;4.27;;;;;;;18.11;86.69;98121.06;5096963;28;20266;-74
2022/10/20 11:31:50;;;;;;;5.93;4.40;;;;;;;18.14;88.38;98115.44;5109217;28;20222;-72
2022/10/20 11:34:27;;;;;;;5.97;4.10;;;;;;;18.17;89.80;98128.50;5119914;28;20535;-73
2022/10/20 11:37:02;;;;;;;4.50;4.10;;;;;;;18.25;88.73;98120.56;5119395;28;20222;-72
2022/10/20 11:39:37;;;;;;;6.23;4.23;;;;;;;18.29;88.64;98129.13;5119368;28;20522;-74